Time;durP1;ratioP1;P1;durP2;ratioP2;P2;SDS_P1;SDS_P2;PMS_P1;PMS_P2;Temp;Humidity;BMP_temperature;BMP_pressure;BME280_temperature;BME280_humidity;BME280_pressure;Samples;Min_cycle;Max_cycle;Signal;HPM_P1;HPM_P2
2022/05/05 00:01:32;;;;;;;9.45;6.18;;;;;;;;;;4990203;28;20617;-69
2022/05/05 00:03:59;;;;;;;10.10;7.07;;;;;;;;;;4988807;28;20037;-69
2022/05/05 00:06:26;;;;;;;7.30;6.20;;;;;;;;;;4991171;28;20749;-69
2022/05/05 00:08:55;;;;;;;10.93;6.00;;;;;;;;;;4988384;28;20038;-69
2022/05/05 00:17:00;;;;;;;8.27;6.07;;;;;;;;;;4994746;28;20445;-70
2022/05/05 00:19:28;;;;;;;8.90;6.38;;;;;;;;;;4990965;28;20527;-69
2022/05/05 00:21:58;;;;;;;8.52;6.07;;;;;;;;;;4988445;28;20362;-69
2022/05/05 00:24:29;;;;;;;8.55;6.68;;;;;;;;;;4989473;28;20116;-69
2022/05/05 00:26:56;;;;;;;9.48;6.28;;;;;;;;;;4994230;28;20038;-69
2022/05/05 00:29:28;;;;;;;7.85;6.20;;;;;;;;;;4968119;28;20034;-69
2022/05/05 00:31:54;;;;;;;8.37;6.27;;;;;;;;;;4992027;28;20038;-69
2022/05/05 00:34:21;;;;;;;8.40;6.68;;;;;;;;;;4991799;28;20038;-69
2022/05/05 00:36:47;;;;;;;7.72;6.32;;;;;;;;;;4972690;28;20126;-69
2022/05/05 00:39:16;;;;;;;8.43;7.00;;;;;;;;;;4976546;28;20438;-69
2022/05/05 00:41:45;;;;;;;9.00;7.47;;;;;;;;;;4985248;28;20096;-69
2022/05/05 00:44:12;;;;;;;10.48;7.15;;;;;;;;;;4969022;28;20092;-69
2022/05/05 00:46:38;;;;;;;8.05;6.57;;;;;;;;;;4972923;28;20093;-69
2022/05/05 00:49:14;;;;;;;8.20;6.45;;;;;;;;;;4992490;28;20053;-69
2022/05/05 00:51:41;;;;;;;14.05;6.05;;;;;;;;;;4988287;28;20038;-69
2022/05/05 00:54:07;;;;;;;7.47;6.38;;;;;;;;;;4983582;28;20494;-69
2022/05/05 00:56:35;;;;;;;8.35;6.28;;;;;;;;;;4983250;28;20037;-69
2022/05/05 00:59:02;;;;;;;7.45;6.53;;;;;;;;;;4989645;28;20088;-69
2022/05/05 01:01:30;;;;;;;7.55;6.40;;;;;;;;;;4986757;28;20037;-69
2022/05/05 01:03:57;;;;;;;8.90;6.93;;;;;;;;;;4987462;28;20041;-69
2022/05/05 01:06:23;;;;;;;14.18;7.10;;;;;;;;;;4986277;28;20042;-69
2022/05/05 01:08:52;;;;;;;7.78;6.60;;;;;;;;;;4987595;28;20038;-69
2022/05/05 01:11:19;;;;;;;7.00;6.05;;;;;;;;;;4995799;28;20034;-69
2022/05/05 01:13:45;;;;;;;9.15;6.07;;;;;;;;;;4985118;28;20697;-69
2022/05/05 01:16:12;;;;;;;6.85;6.15;;;;;;;;;;4990155;28;20527;-69
2022/05/05 01:18:41;;;;;;;12.15;7.20;;;;;;;;;;4990942;28;20479;-69
2022/05/05 01:21:18;;;;;;;10.80;6.68;;;;;;;;;;4994455;28;20069;-69
2022/05/05 01:23:44;;;;;;;11.27;6.45;;;;;;;;;;4985081;28;20048;-69
2022/05/05 01:28:57;;;;;;;15.98;8.40;;;;;;;;;;4987521;28;20052;-69
2022/05/05 01:31:23;;;;;;;14.77;9.80;;;;;;;;;;4992685;28;20042;-69
2022/05/05 01:33:55;;;;;;;12.85;7.78;;;;;;;;;;4992172;28;20125;-69
2022/05/05 01:36:24;;;;;;;9.88;7.47;;;;;;;;;;4982175;28;20038;-69
2022/05/05 01:38:54;;;;;;;10.25;7.97;;;;;;;;;;4988005;28;20034;-69
2022/05/05 01:41:23;;;;;;;;;;;;;;;;;;4986341;28;20056;-69
2022/05/05 01:43:54;;;;;;;9.48;7.70;;;;;;;;;;4985335;28;19917;-69
2022/05/05 01:46:21;;;;;;;12.20;7.70;;;;;;;;;;4990743;28;20040;-69
2022/05/05 01:48:47;;;;;;;11.25;7.00;;;;;;;;;;4983708;28;20403;-69
2022/05/05 01:51:15;;;;;;;8.43;6.80;;;;;;;;;;4992351;28;20026;-69
2022/05/05 01:53:44;;;;;;;11.07;6.95;;;;;;;;;;4989731;28;20037;-69
2022/05/05 01:56:12;;;;;;;10.70;7.00;;;;;;;;;;4988976;28;20550;-69
2022/05/05 01:58:44;;;;;;;11.32;7.05;;;;;;;;;;4994238;28;20129;-69
2022/05/05 02:01:14;;;;;;;13.27;7.10;;;;;;;;;;4985024;28;20026;-69
2022/05/05 02:03:43;;;;;;;11.27;7.03;;;;;;;;;;4993584;28;20037;-69
2022/05/05 02:06:09;;;;;;;8.27;6.78;;;;;;;;;;4990505;28;20979;-69
2022/05/05 02:08:44;;;;;;;12.68;7.55;;;;;;;;;;4983245;28;20043;-69
2022/05/05 02:11:10;;;;;;;11.60;7.63;;;;;;;;;;4985494;28;20511;-69
2022/05/05 02:13:38;;;;;;;14.35;7.43;;;;;;;;;;4991213;28;20508;-69
2022/05/05 02:16:05;;;;;;;10.85;6.93;;;;;;;;;;4993451;28;20057;-69
2022/05/05 02:18:31;;;;;;;11.45;6.78;;;;;;;;;;4986416;28;20042;-69
2022/05/05 02:20:59;;;;;;;9.05;6.53;;;;;;;;;;4995932;28;20038;-69
2022/05/05 02:23:29;;;;;;;9.43;6.93;;;;;;;;;;4989370;28;20069;-68
2022/05/05 02:25:57;;;;;;;9.48;6.53;;;;;;;;;;4983676;28;20038;-69
2022/05/05 02:28:27;;;;;;;6.68;5.68;;;;;;;;;;4983085;28;20099;-69
2022/05/05 02:30:52;;;;;;;8.98;6.65;;;;;;;;;;4990755;28;20581;-69
2022/05/05 02:33:21;;;;;;;7.72;5.80;;;;;;;;;;4993062;28;20038;-69
2022/05/05 02:38:42;;;;;;;7.05;5.70;;;;;;;;;;4989061;28;20640;-69
2022/05/05 02:38:44;;;;;;;6.72;5.20;;;;;;;;;;4990227;28;20073;-69
2022/05/05 02:41:12;;;;;;;9.85;5.43;;;;;;;;;;4988482;28;20395;-69
2022/05/05 02:43:44;;;;;;;7.97;5.45;;;;;;;;;;4981047;28;20026;-69
2022/05/05 02:46:12;;;;;;;9.00;5.20;;;;;;;;;;4965473;28;20208;-69
2022/05/05 02:48:38;;;;;;;8.18;6.45;;;;;;;;;;4987843;28;20507;-69
2022/05/05 02:51:04;;;;;;;8.55;5.88;;;;;;;;;;4991145;28;20049;-69
2022/05/05 02:56:16;;;;;;;6.63;5.85;;;;;;;;;;4986788;28;20117;-68
2022/05/05 02:58:45;;;;;;;6.80;6.10;;;;;;;;;;4988659;28;20456;-69
2022/05/05 03:01:13;;;;;;;8.23;5.72;;;;;;;;;;4990191;28;20926;-69
2022/05/05 03:03:39;;;;;;;9.48;6.50;;;;;;;;;;4985353;28;21114;-69
2022/05/05 03:06:10;;;;;;;6.45;5.72;;;;;;;;;;4984774;28;20026;-69
2022/05/05 03:08:42;;;;;;;6.15;5.50;;;;;;;;;;4982301;28;20057;-68
2022/05/05 03:11:10;;;;;;;6.43;5.35;;;;;;;;;;4985588;28;20204;-68
2022/05/05 03:13:36;;;;;;;5.72;5.13;;;;;;;;;;4978520;28;20495;-68
2022/05/05 03:16:05;;;;;;;5.28;4.72;;;;;;;;;;4987375;28;20184;-68
2022/05/05 03:18:40;;;;;;;5.68;5.07;;;;;;;;;;4993948;28;20146;-68
2022/05/05 03:21:09;;;;;;;5.82;5.07;;;;;;;;;;4994803;28;20033;-69
2022/05/05 03:23:35;;;;;;;8.30;4.35;;;;;;;;;;4993743;28;20073;-68
2022/05/05 03:26:01;;;;;;;6.65;4.93;;;;;;;;;;4988318;28;20037;-68
2022/05/05 03:28:30;;;;;;;5.25;4.68;;;;;;;;;;4992241;28;20030;-68
2022/05/05 03:31:02;;;;;;;5.95;5.28;;;;;;;;;;4989443;28;20911;-68
2022/05/05 03:33:29;;;;;;;6.38;5.10;;;;;;;;;;4991209;28;20038;-68
2022/05/05 03:35:55;;;;;;;5.65;5.05;;;;;;;;;;4969634;28;21061;-69
2022/05/05 03:38:29;;;;;;;7.07;5.18;;;;;;;;;;4985596;28;20044;-70
2022/05/05 03:40:58;;;;;;;7.28;5.22;;;;;;;;;;4995280;28;20902;-70
2022/05/05 03:43:24;;;;;;;6.38;4.78;;;;;;;;;;4989626;28;20037;-70
2022/05/05 03:45:53;;;;;;;6.15;5.10;;;;;;;;;;4991246;28;20562;-70
2022/05/05 03:48:19;;;;;;;7.05;5.25;;;;;;;;;;4986858;28;20073;-69
2022/05/05 03:50:45;;;;;;;6.43;5.10;;;;;;;;;;4987108;28;20729;-69
2022/05/05 03:53:13;;;;;;;7.63;5.03;;;;;;;;;;4989712;28;20044;-69
2022/05/05 03:55:39;;;;;;;5.93;4.60;;;;;;;;;;4988982;28;20042;-69
2022/05/05 03:58:05;;;;;;;5.93;4.90;;;;;;;;;;4990966;28;20058;-69
2022/05/05 04:00:31;;;;;;;8.93;4.68;;;;;;;;;;4983832;28;20712;-69
2022/05/05 04:05:45;;;;;;;6.20;4.80;;;;;;;;;;4990291;28;20487;-69
2022/05/05 04:08:14;;;;;;;5.05;4.30;;;;;;;;;;4991142;28;20372;-69
2022/05/05 04:10:42;;;;;;;6.40;4.63;;;;;;;;;;4996127;28;20040;-69
2022/05/05 04:13:08;;;;;;;6.13;4.82;;;;;;;;;;4991981;28;20114;-69
2022/05/05 04:15:34;;;;;;;7.28;5.53;;;;;;;;;;4990622;28;20595;-69
2022/05/05 04:18:05;;;;;;;6.57;5.35;;;;;;;;;;4987760;28;20029;-69
2022/05/05 04:20:33;;;;;;;7.15;5.18;;;;;;;;;;4988232;28;20038;-69
2022/05/05 04:23:01;;;;;;;7.85;5.28;;;;;;;;;;4991287;28;20068;-69
2022/05/05 04:25:28;;;;;;;6.38;4.57;;;;;;;;;;4989104;28;20046;-69
2022/05/05 04:27:54;;;;;;;5.22;4.60;;;;;;;;;;4992266;28;20033;-69
2022/05/05 04:30:23;;;;;;;5.82;4.30;;;;;;;;;;4991957;28;20379;-69
2022/05/05 04:32:57;;;;;;;4.35;3.95;;;;;;;;;;4989361;28;20042;-69
2022/05/05 04:35:23;;;;;;;5.40;4.80;;;;;;;;;;4991220;28;20632;-69
2022/05/05 04:37:51;;;;;;;4.75;4.28;;;;;;;;;;4986807;28;20078;-69
2022/05/05 04:43:41;;;;;;;7.35;5.97;;;;;;;;;;4991719;28;20144;-69
2022/05/05 04:46:22;;;;;;;6.10;5.53;;;;;;;;;;4999176;28;20036;-70
2022/05/05 04:48:48;;;;;;;7.68;5.18;;;;;;;;;;4985082;28;20038;-69
2022/05/05 04:51:18;;;;;;;4.80;4.30;;;;;;;;;;4986378;28;20551;-69
2022/05/05 04:53:49;;;;;;;5.18;3.95;;;;;;;;;;4988502;28;20394;-69
2022/05/05 04:56:14;;;;;;;6.13;5.00;;;;;;;;;;4989215;28;20116;-69
2022/05/05 04:58:41;;;;;;;4.80;3.90;;;;;;;;;;4991765;28;20038;-69
2022/05/05 05:01:09;;;;;;;4.13;3.72;;;;;;;;;;4993535;28;20514;-68
2022/05/05 05:03:41;;;;;;;4.68;4.28;;;;;;;;;;4988561;28;20042;-69
2022/05/05 05:06:09;;;;;;;5.18;4.68;;;;;;;;;;4988049;28;20188;-68
2022/05/05 05:08:35;;;;;;;6.60;4.40;;;;;;;;;;4984177;28;20101;-69
2022/05/05 05:11:01;;;;;;;3.83;3.40;;;;;;;;;;4983023;28;20347;-69
2022/05/05 05:13:28;;;;;;;3.38;3.08;;;;;;;;;;4969714;28;20450;-68
2022/05/05 05:15:57;;;;;;;3.22;2.92;;;;;;;;;;4984737;28;20069;-68
2022/05/05 05:18:23;;;;;;;3.00;2.80;;;;;;;;;;4980078;28;20062;-68
2022/05/05 05:20:52;;;;;;;4.25;2.75;;;;;;;;;;4960420;28;20049;-69
2022/05/05 05:23:18;;;;;;;4.38;2.50;;;;;;;;;;4978970;28;20097;-68
2022/05/05 05:25:44;;;;;;;6.38;2.70;;;;;;;;;;4981332;28;20792;-68
2022/05/05 05:28:15;;;;;;;10.50;2.95;;;;;;;;;;4980014;28;20061;-68
2022/05/05 05:30:42;;;;;;;5.85;3.05;;;;;;;;;;4984961;28;20038;-69
2022/05/05 05:33:08;;;;;;;17.02;3.55;;;;;;;;;;4981278;28;20442;-68
2022/05/05 05:35:34;;;;;;;7.65;3.40;;;;;;;;;;4982190;28;20065;-68
2022/05/05 05:38:00;;;;;;;6.63;2.50;;;;;;;;;;4987783;28;20455;-69
2022/05/05 05:40:26;;;;;;;4.05;2.42;;;;;;;;;;4983412;28;20365;-69
2022/05/05 05:42:55;;;;;;;3.95;2.33;;;;;;;;;;4981901;28;20499;-69
2022/05/05 05:45:21;;;;;;;2.53;2.33;;;;;;;;;;4982092;28;20037;-68
2022/05/05 05:47:47;;;;;;;2.60;2.40;;;;;;;;;;4991077;28;20088;-69
2022/05/05 05:50:16;;;;;;;2.70;2.50;;;;;;;;;;4993539;28;20642;-69
2022/05/05 05:52:42;;;;;;;3.22;2.40;;;;;;;;;;4985708;28;20048;-69
2022/05/05 05:55:09;;;;;;;2.60;2.40;;;;;;;;;;4977274;28;20033;-69
2022/05/05 05:57:37;;;;;;;2.97;2.33;;;;;;;;;;4983949;28;20121;-69
2022/05/05 06:00:07;;;;;;;2.38;2.17;;;;;;;;;;4966190;28;20535;-69
2022/05/05 06:05:24;;;;;;;2.22;2.03;;;;;;;;;;4983396;28;20038;-69
2022/05/05 06:07:53;;;;;;;2.60;1.95;;;;;;;;;;4986375;28;20038;-68
2022/05/05 06:10:20;;;;;;;3.67;1.90;;;;;;;;;;4987469;28;20030;-68
2022/05/05 06:12:49;;;;;;;2.70;2.40;;;;;;;;;;4991377;28;20037;-69
2022/05/05 06:15:15;;;;;;;2.33;2.13;;;;;;;;;;4979049;28;20088;-69
2022/05/05 06:17:44;;;;;;;2.95;2.30;;;;;;;;;;4984171;28;20034;-69
2022/05/05 06:20:11;;;;;;;5.05;2.08;;;;;;;;;;4983839;28;20026;-69
2022/05/05 06:22:40;;;;;;;2.28;2.08;;;;;;;;;;4990775;28;20029;-69
2022/05/05 06:25:07;;;;;;;2.40;2.13;;;;;;;;;;4984026;28;20030;-70
2022/05/05 06:27:36;;;;;;;2.10;1.90;;;;;;;;;;4984799;28;20066;-70
2022/05/05 06:30:05;;;;;;;3.47;2.10;;;;;;;;;;4987143;28;20046;-69
2022/05/05 06:32:37;;;;;;;2.30;2.10;;;;;;;;;;4980668;28;20038;-69
2022/05/05 06:38:53;;;;;;;4.20;2.30;;;;;;;;;;4985780;28;20111;-69
2022/05/05 06:41:26;;;;;;;2.38;2.05;;;;;;;;;;4990477;28;20033;-69
2022/05/05 06:43:55;;;;;;;2.78;2.38;;;;;;;;;;4993436;28;20168;-69
2022/05/05 06:46:27;;;;;;;3.50;1.83;;;;;;;;;;4990956;28;20026;-70
2022/05/05 06:48:56;;;;;;;3.42;2.05;;;;;;;;;;4986295;28;20103;-69
2022/05/05 06:51:25;;;;;;;11.45;3.58;;;;;;;;;;4985467;28;20083;-69
2022/05/05 06:53:51;;;;;;;4.53;2.47;;;;;;;;;;4988474;28;20042;-69
2022/05/05 06:56:20;;;;;;;2.88;2.60;;;;;;;;;;4978774;28;20109;-68
2022/05/05 06:58:46;;;;;;;6.18;2.08;;;;;;;;;;4993290;28;20073;-70
2022/05/05 07:06:43;;;;;;;2.40;2.30;;;;;;;;;;4990637;28;20030;-70
2022/05/05 07:12:06;;;;;;;5.78;2.38;;;;;;;;;;4995080;28;20093;-69
2022/05/05 07:14:33;;;;;;;2.47;2.20;;;;;;;;;;4986955;28;20041;-69
2022/05/05 07:17:05;;;;;;;2.80;2.45;;;;;;;;;;4991771;28;20617;-69
2022/05/05 07:19:34;;;;;;;3.08;2.65;;;;;;;;;;4991545;28;20506;-69
2022/05/05 07:22:03;;;;;;;3.58;2.63;;;;;;;;;;4993073;28;20421;-69
2022/05/05 07:24:32;;;;;;;5.25;2.10;;;;;;;;;;4997009;28;20648;-69
2022/05/05 07:27:03;;;;;;;3.55;2.72;;;;;;;;;;4992590;28;20027;-68
2022/05/05 07:29:38;;;;;;;4.57;2.20;;;;;;;;;;4987957;28;20109;-69
2022/05/05 07:32:05;;;;;;;2.35;2.20;;;;;;;;;;4986927;28;20057;-69
2022/05/05 07:34:35;;;;;;;3.25;2.38;;;;;;;;;;4993301;28;20112;-69
2022/05/05 07:37:02;;;;;;;4.90;2.50;;;;;;;;;;4989926;28;20049;-69
2022/05/05 07:39:37;;;;;;;7.18;2.30;;;;;;;;;;4992507;28;20045;-68
2022/05/05 07:42:04;;;;;;;4.20;2.40;;;;;;;;;;4994765;28;20045;-68
2022/05/05 07:45:00;;;;;;;3.05;2.75;;;;;;;;;;4977910;28;20042;-68
2022/05/05 07:47:33;;;;;;;4.57;2.15;;;;;;;;;;4986928;28;20049;-68
2022/05/05 07:50:01;;;;;;;5.15;2.47;;;;;;;;;;4989230;28;20034;-68
2022/05/05 07:52:30;;;;;;;4.72;2.40;;;;;;;;;;4975996;28;20030;-68
2022/05/05 07:55:02;;;;;;;3.97;2.38;;;;;;;;;;4991873;28;20461;-68
2022/05/05 07:57:35;;;;;;;2.50;2.30;;;;;;;;;;4977903;28;20038;-69
2022/05/05 08:00:02;;;;;;;2.75;2.33;;;;;;;;;;4993809;28;20176;-69
2022/05/05 08:02:41;;;;;;;3.38;2.22;;;;;;;;;;4992676;28;20067;-68
2022/05/05 08:05:12;;;;;;;3.13;2.85;;;;;;;;;;4991048;28;20038;-68
2022/05/05 08:07:49;;;;;;;4.20;2.22;;;;;;;;;;4992385;28;20403;-69
2022/05/05 08:10:21;;;;;;;2.50;2.30;;;;;;;;;;4993108;28;20133;-68
2022/05/05 08:13:07;;;;;;;3.08;2.60;;;;;;;;;;4993722;28;20182;-68
2022/05/05 08:15:33;;;;;;;4.05;2.60;;;;;;;;;;4989741;28;20088;-68
2022/05/05 08:18:02;;;;;;;2.50;2.30;;;;;;;;;;4994216;28;20034;-67
2022/05/05 08:20:34;;;;;;;4.15;2.30;;;;;;;;;;4993413;28;20069;-70
2022/05/05 08:29:24;;;;;;;3.45;2.40;;;;;;;;;;4993693;28;20498;-69
2022/05/05 08:32:00;;;;;;;5.13;2.58;;;;;;;;;;4990800;28;20034;-70
2022/05/05 08:34:30;;;;;;;4.07;2.47;;;;;;;;;;4992078;28;20026;-69
2022/05/05 08:37:06;;;;;;;4.68;2.63;;;;;;;;;;4977249;28;20085;-70
2022/05/05 08:39:44;;;;;;;2.70;2.40;;;;;;;;;;4987003;28;20041;-70
2022/05/05 08:42:13;;;;;;;3.67;2.45;;;;;;;;;;4990037;28;20022;-69
2022/05/05 08:44:44;;;;;;;3.22;2.40;;;;;;;;;;4992377;28;20034;-69
2022/05/05 08:47:17;;;;;;;3.05;2.50;;;;;;;;;;4987523;28;20033;-70
2022/05/05 08:49:45;;;;;;;3.00;2.75;;;;;;;;;;4989364;28;20030;-70
2022/05/05 08:52:19;;;;;;;2.70;2.50;;;;;;;;;;4987937;28;20100;-71
2022/05/05 08:54:51;;;;;;;2.90;2.38;;;;;;;;;;4989381;28;20092;-70
2022/05/05 08:57:22;;;;;;;4.97;2.38;;;;;;;;;;4986369;28;20029;-68
2022/05/05 08:59:48;;;;;;;2.90;2.60;;;;;;;;;;4989464;28;20042;-69
2022/05/05 09:02:20;;;;;;;3.35;2.60;;;;;;;;;;4988473;28;20033;-69
2022/05/05 09:04:49;;;;;;;2.83;2.63;;;;;;;;;;4986611;28;20038;-70
2022/05/05 09:07:21;;;;;;;4.72;2.58;;;;;;;;;;4990040;28;20034;-70
2022/05/05 09:09:57;;;;;;;5.47;3.03;;;;;;;;;;4993110;28;20029;-70
2022/05/05 09:12:23;;;;;;;6.20;2.85;;;;;;;;;;4989091;28;20053;-69
2022/05/05 09:14:50;;;;;;;5.47;2.70;;;;;;;;;;4987657;28;20073;-69
2022/05/05 09:17:28;;;;;;;2.70;2.50;;;;;;;;;;4992659;28;20033;-70
2022/05/05 09:19:57;;;;;;;2.28;2.03;;;;;;;;;;4993241;28;20041;-70
2022/05/05 09:22:25;;;;;;;4.47;2.33;;;;;;;;;;4989456;28;20054;-70
2022/05/05 09:25:01;;;;;;;4.28;2.25;;;;;;;;;;4992687;28;20038;-70
2022/05/05 09:27:36;;;;;;;2.35;2.22;;;;;;;;;;4995064;28;20025;-69
2022/05/05 09:30:12;;;;;;;2.33;2.10;;;;;;;;;;4990683;28;20116;-68
2022/05/05 09:32:43;;;;;;;2.28;2.15;;;;;;;;;;4986216;28;20034;-69
2022/05/05 09:35:18;;;;;;;2.88;2.30;;;;;;;;;;4986859;28;20061;-72
2022/05/05 09:37:54;;;;;;;7.57;2.90;;;;;;;;;;4989116;28;20350;-71
2022/05/05 09:40:25;;;;;;;2.60;2.40;;;;;;;;;;4983544;28;20487;-69
2022/05/05 09:42:57;;;;;;;2.30;2.08;;;;;;;;;;4986198;28;20034;-68
2022/05/05 09:45:38;;;;;;;3.40;1.70;;;;;;;;;;4988125;28;20130;-70
2022/05/05 09:48:12;;;;;;;2.80;1.83;;;;;;;;;;4988781;28;20041;-70
2022/05/05 09:50:47;;;;;;;3.00;2.15;;;;;;;;;;4990506;28;20038;-68
2022/05/05 09:59:02;;;;;;;2.55;2.33;;;;;;;;;;4970096;28;20050;-70
2022/05/05 10:01:34;;;;;;;5.13;2.30;;;;;;;;;;4987747;28;20544;-71
2022/05/05 10:04:05;;;;;;;3.53;2.25;;;;;;;;;;4982830;28;20897;-71
2022/05/05 10:06:40;;;;;;;3.70;2.40;;;;;;;;;;4984343;28;20049;-70
2022/05/05 10:09:17;;;;;;;2.70;2.25;;;;;;;;;;4987069;28;20780;-69
2022/05/05 10:11:43;;;;;;;5.00;2.20;;;;;;;;;;4972776;28;20048;-69
2022/05/05 10:14:14;;;;;;;8.45;2.30;;;;;;;;;;4990519;28;20034;-69
2022/05/05 10:16:50;;;;;;;2.45;2.10;;;;;;;;;;4989646;28;20123;-72
2022/05/05 10:19:19;;;;;;;2.40;2.20;;;;;;;;;;4985678;28;20454;-72
2022/05/05 10:22:03;;;;;;;7.30;2.67;;;;;;;;;;4993121;28;20403;-71
2022/05/05 10:24:40;;;;;;;4.30;2.47;;;;;;;;;;4978011;28;20030;-72
2022/05/05 10:27:15;;;;;;;4.05;2.33;;;;;;;;;;4989165;28;20135;-71
2022/05/05 10:30:00;;;;;;;3.88;2.47;;;;;;;;;;4988736;28;20069;-71
2022/05/05 10:32:33;;;;;;;5.38;2.47;;;;;;;;;;4987505;28;20045;-70
2022/05/05 10:35:19;;;;;;;6.75;2.95;;;;;;;;;;4983225;28;20050;-71
2022/05/05 10:37:45;;;;;;;2.78;2.40;;;;;;;;;;4989473;28;20129;-69
2022/05/05 10:40:15;;;;;;;3.15;2.38;;;;;;;;;;4989988;28;20038;-72
2022/05/05 10:42:57;;;;;;;5.63;2.80;;;;;;;;;;4979189;28;20038;-72
2022/05/05 10:45:34;;;;;;;2.70;2.50;;;;;;;;;;4988891;28;20509;-71
2022/05/05 10:48:12;;;;;;;3.22;2.30;;;;;;;;;;4988764;28;20077;-73
2022/05/05 10:51:02;;;;;;;3.03;2.35;;;;;;;;;;4990605;28;20141;-70
2022/05/05 10:53:53;;;;;;;2.65;2.45;;;;;;;;;;4989439;28;20061;-72
2022/05/05 10:56:31;;;;;;;4.00;2.50;;;;;;;;;;4988177;28;20052;-70
2022/05/05 10:59:13;;;;;;;5.50;2.83;;;;;;;;;;4986563;28;20034;-71
2022/05/05 11:02:19;;;;;;;2.60;2.40;;;;;;;;;;4988186;28;20045;-71
2022/05/05 11:05:35;;;;;;;4.35;1.95;;;;;;;;;;4988632;28;20121;-72
2022/05/05 11:08:19;;;;;;;3.05;2.60;;;;;;;;;;4987358;28;20434;-72
2022/05/05 11:13:49;;;;;;;2.38;2.17;;;;;;;;;;4992301;28;20104;-70
2022/05/05 11:22:53;;;;;;;2.90;2.60;;;;;;;;;;4996605;28;20060;-72
2022/05/05 11:25:24;;;;;;;2.70;2.50;;;;;;;;;;4990247;28;20030;-71
2022/05/05 11:28:01;;;;;;;2.92;2.60;;;;;;;;;;4990953;28;20045;-72
2022/05/05 11:30:30;;;;;;;2.70;2.50;;;;;;;;;;4991581;28;20129;-73
2022/05/05 11:33:03;;;;;;;3.45;2.55;;;;;;;;;;4990521;28;20034;-72
2022/05/05 11:35:36;;;;;;;3.80;2.58;;;;;;;;;;4987122;28;20069;-71
2022/05/05 11:38:09;;;;;;;2.90;2.15;;;;;;;;;;4993285;28;20037;-72
2022/05/05 11:40:38;;;;;;;5.35;2.28;;;;;;;;;;4988219;28;20030;-70
2022/05/05 11:45:55;;;;;;;3.25;2.17;;;;;;;;;;4990906;28;20038;-70
2022/05/05 11:48:21;;;;;;;2.60;2.40;;;;;;;;;;4998355;28;20033;-73
2022/05/05 11:50:52;;;;;;;2.75;2.30;;;;;;;;;;4988959;28;20034;-74
2022/05/05 11:53:22;;;;;;;10.20;2.60;;;;;;;;;;4997115;28;20026;-69
2022/05/05 11:55:55;;;;;;;2.00;1.90;;;;;;;;;;4988888;28;20030;-73
2022/05/05 12:04:03;;;;;;;3.30;1.98;;;;;;;;;;4985041;28;20030;-70
2022/05/05 12:06:38;;;;;;;2.83;1.90;;;;;;;;;;4989987;28;20093;-70
2022/05/05 12:09:50;;;;;;;1.70;1.60;;;;;;;;;;4987888;28;20098;-70
2022/05/05 12:12:40;;;;;;;3.83;1.83;;;;;;;;;;4988321;28;20030;-69
2022/05/05 12:19:09;;;;;;;2.20;2.00;;;;;;;;;;4991218;28;20133;-70
2022/05/05 12:21:50;;;;;;;4.78;2.00;;;;;;;;;;4992722;28;21071;-71
2022/05/05 12:24:16;;;;;;;2.45;2.25;;;;;;;;;;4977515;28;20029;-71
2022/05/05 12:26:42;;;;;;;2.97;2.10;;;;;;;;;;4996464;28;20029;-71
2022/05/05 12:29:38;;;;;;;2.58;2.38;;;;;;;;;;4990589;28;20108;-70
2022/05/05 12:32:18;;;;;;;2.90;2.25;;;;;;;;;;4992128;28;20034;-72
2022/05/05 12:34:47;;;;;;;5.88;2.15;;;;;;;;;;4994536;28;20038;-72
2022/05/05 12:37:28;;;;;;;4.03;2.90;;;;;;;;;;4989120;28;20061;-71
2022/05/05 12:39:56;;;;;;;2.78;2.47;;;;;;;;;;5698644;22;21009;-72
2022/05/05 12:42:53;;;;;;;2.40;2.20;;;;;;;;;;5000294;28;20060;-70
2022/05/05 12:45:29;;;;;;;2.85;2.38;;;;;;;;;;5001447;28;20040;-70
2022/05/05 12:48:01;;;;;;;2.60;2.40;;;;;;;;;;5002417;28;20061;-71
2022/05/05 12:50:49;;;;;;;3.40;2.60;;;;;;;;;;4997730;28;20034;-73
2022/05/05 13:02:03;;;;;;;2.00;1.90;;;;;;;;;;5001089;28;20053;-72
2022/05/05 13:04:36;;;;;;;4.10;2.53;;;;;;;;;;5001952;28;20029;-71
2022/05/05 13:07:44;;;;;;;4.47;2.63;;;;;;;;;;5003465;28;20145;-72
2022/05/05 13:10:19;;;;;;;4.28;2.97;;;;;;;;;;5002092;28;20034;-73
2022/05/05 13:12:46;;;;;;;4.43;2.72;;;;;;;;;;5001200;28;20157;-71
2022/05/05 13:15:49;;;;;;;4.43;2.63;;;;;;;;;;5001302;28;20104;-73
2022/05/05 13:18:25;;;;;;;3.75;2.58;;;;;;;;;;5002726;28;20686;-71
2022/05/05 13:20:58;;;;;;;3.00;2.67;;;;;;;;;;5002639;28;20578;-71
2022/05/05 13:23:27;;;;;;;3.85;3.10;;;;;;;;;;5000803;28;20800;-71
2022/05/05 13:25:56;;;;;;;3.05;2.75;;;;;;;;;;4999125;28;20026;-71
2022/05/05 13:28:34;;;;;;;3.20;2.80;;;;;;;;;;5002196;28;20507;-71
2022/05/05 13:31:05;;;;;;;3.83;2.70;;;;;;;;;;5000437;28;20030;-71
2022/05/05 13:33:34;;;;;;;4.78;2.90;;;;;;;;;;5000922;28;20030;-69
2022/05/05 13:36:06;;;;;;;2.78;2.58;;;;;;;;;;5000686;28;20041;-72
2022/05/05 13:38:39;;;;;;;2.80;2.60;;;;;;;;;;5001725;28;20120;-72
2022/05/05 13:41:10;;;;;;;3.20;2.90;;;;;;;;;;5010988;28;20095;-72
2022/05/05 13:43:39;;;;;;;3.25;2.70;;;;;;;;;;5020159;28;20506;-70
2022/05/05 13:46:12;;;;;;;3.85;2.75;;;;;;;;;;5020748;28;20536;-72
2022/05/05 13:48:41;;;;;;;4.57;3.05;;;;;;;;;;5021420;28;20045;-72
2022/05/05 13:51:06;;;;;;;3.05;2.72;;;;;;;;;;5016765;28;20163;-72
2022/05/05 13:53:33;;;;;;;2.88;2.50;;;;;;;;;;5018902;28;20460;-72
2022/05/05 13:55:59;;;;;;;3.58;2.80;;;;;;;;;;5019629;28;20049;-71
2022/05/05 13:58:24;;;;;;;4.43;2.75;;;;;;;;;;5018757;28;20032;-72
2022/05/05 14:00:50;;;;;;;3.10;2.60;;;;;;;;;;4998798;28;20033;-70
2022/05/05 14:03:16;;;;;;;2.88;2.67;;;;;;;;;;5016842;28;20060;-73
2022/05/05 14:05:42;;;;;;;2.60;2.40;;;;;;;;;;5017874;28;20037;-72
2022/05/05 14:13:36;;;;;;;2.83;2.47;;;;;;;;;;5018186;28;20087;-72
2022/05/05 14:16:30;;;;;;;2.80;2.60;;;;;;;;;;5002459;28;20049;-76
2022/05/05 14:18:56;;;;;;;5.53;3.25;;;;;;;;;;5018536;28;20479;-73
2022/05/05 14:21:21;;;;;;;4.97;3.10;;;;;;;;;;5020602;28;20075;-73
2022/05/05 14:23:47;;;;;;;3.80;2.65;;;;;;;;;;5019442;28;20048;-73
2022/05/05 14:26:12;;;;;;;6.75;3.30;;;;;;;;;;5020624;28;20068;-73
2022/05/05 14:28:39;;;;;;;4.55;3.05;;;;;;;;;;5018541;28;20734;-73
2022/05/05 14:31:04;;;;;;;4.93;3.00;;;;;;;;;;5019281;28;20037;-72
2022/05/05 14:33:30;;;;;;;4.10;2.88;;;;;;;;;;5018523;28;20036;-71
2022/05/05 14:35:56;;;;;;;3.85;2.80;;;;;;;;;;5002994;28;20036;-71
2022/05/05 14:38:21;;;;;;;5.05;2.90;;;;;;;;;;5020597;28;20482;-71
2022/05/05 14:40:47;;;;;;;9.35;2.78;;;;;;;;;;5019595;28;20041;-71
2022/05/05 14:43:12;;;;;;;3.10;2.80;;;;;;;;;;5020223;28;20037;-71
2022/05/05 14:45:38;;;;;;;3.22;2.63;;;;;;;;;;5019651;28;20045;-71
2022/05/05 14:48:04;;;;;;;3.38;2.65;;;;;;;;;;5020325;28;20037;-72
2022/05/05 14:50:30;;;;;;;3.35;2.40;;;;;;;;;;5019650;28;20064;-71
2022/05/05 14:52:55;;;;;;;3.35;2.35;;;;;;;;;;5020279;28;20343;-72
2022/05/05 14:55:21;;;;;;;4.45;2.75;;;;;;;;;;5018871;28;20565;-71
2022/05/05 14:57:46;;;;;;;4.07;2.60;;;;;;;;;;5002934;28;20184;-71
2022/05/05 15:00:13;;;;;;;3.00;2.55;;;;;;;;;;5020524;28;20483;-71
2022/05/05 15:02:38;;;;;;;4.03;2.35;;;;;;;;;;5020158;28;20045;-71
2022/05/05 15:05:04;;;;;;;4.22;2.30;;;;;;;;;;5020217;28;20102;-71
2022/05/05 15:07:29;;;;;;;2.90;2.70;;;;;;;;;;5020418;28;20133;-71
2022/05/05 15:09:55;;;;;;;5.60;2.97;;;;;;;;;;5021828;28;20072;-73
2022/05/05 15:12:22;;;;;;;2.83;2.42;;;;;;;;;;5024007;28;20040;-70
2022/05/05 15:14:47;;;;;;;2.47;2.28;;;;;;;;;;5006445;28;20099;-70
2022/05/05 15:17:14;;;;;;;2.95;2.22;;;;;;;;;;5024804;28;20037;-70
2022/05/05 15:19:39;;;;;;;3.33;2.90;;;;;;;;;;5006356;28;20053;-71
2022/05/05 15:22:05;;;;;;;4.80;2.63;;;;;;;;;;5024417;28;20048;-71
2022/05/05 15:24:31;;;;;;;3.38;2.70;;;;;;;;;;5021861;28;20037;-71
2022/05/05 15:26:56;;;;;;;2.78;2.40;;;;;;;;;;5024295;28;20138;-70
2022/05/05 15:29:22;;;;;;;3.95;2.80;;;;;;;;;;5023924;28;20041;-70
2022/05/05 15:31:48;;;;;;;3.28;2.90;;;;;;;;;;5006161;28;20555;-70
2022/05/05 15:34:13;;;;;;;3.25;2.38;;;;;;;;;;5022551;28;20522;-71
2022/05/05 15:36:42;;;;;;;4.32;2.08;;;;;;;;;;5024292;28;20049;-71
2022/05/05 15:39:08;;;;;;;3.03;2.40;;;;;;;;;;5024219;28;20767;-70
2022/05/05 15:41:33;;;;;;;2.40;2.20;;;;;;;;;;5023904;28;20037;-71
2022/05/05 15:43:58;;;;;;;3.25;2.80;;;;;;;;;;5024777;28;20041;-71
2022/05/05 15:46:25;;;;;;;2.60;2.40;;;;;;;;;;5022101;28;20030;-70
2022/05/05 15:48:51;;;;;;;2.58;2.38;;;;;;;;;;5023324;28;20052;-71
2022/05/05 15:51:17;;;;;;;2.53;2.33;;;;;;;;;;5023089;28;20487;-71
2022/05/05 15:53:43;;;;;;;3.08;2.78;;;;;;;;;;5021228;28;20536;-73
2022/05/05 15:56:08;;;;;;;5.07;2.60;;;;;;;;;;5022171;28;20119;-72
2022/05/05 15:58:34;;;;;;;2.70;2.50;;;;;;;;;;5022248;28;20039;-71
2022/05/05 16:01:01;;;;;;;3.22;2.13;;;;;;;;;;5022480;28;20116;-72
2022/05/05 16:03:26;;;;;;;2.40;2.20;;;;;;;;;;5022920;28;20030;-72
2022/05/05 16:06:05;;;;;;;2.38;2.03;;;;;;;;;;5026174;28;20083;-72
2022/05/05 16:08:30;;;;;;;3.65;2.30;;;;;;;;;;5022478;28;20045;-71
2022/05/05 16:10:56;;;;;;;3.88;2.33;;;;;;;;;;5022728;28;20041;-71
2022/05/05 16:13:21;;;;;;;2.65;2.13;;;;;;;;;;5022543;28;20039;-72
2022/05/05 16:15:49;;;;;;;3.03;2.22;;;;;;;;;;5022430;28;20579;-71
2022/05/05 16:18:15;;;;;;;3.03;2.13;;;;;;;;;;5021406;28;20038;-71
2022/05/05 16:20:41;;;;;;;2.60;2.28;;;;;;;;;;5022391;28;20041;-71
2022/05/05 16:23:06;;;;;;;3.05;2.10;;;;;;;;;;5021806;28;20037;-71